Time;durP1;ratioP1;P1;durP2;ratioP2;P2;SDS_P1;SDS_P2;PMS_P1;PMS_P2;Temp;Humidity;BMP_temperature;BMP_pressure;BME280_temperature;BME280_humidity;BME280_pressure;Samples;Min_cycle;Max_cycle;Signal;HPM_P1;HPM_P2
2022/05/30 00:01:35;;;;;;;5.00;2.70;;;;;;;10.95;100.00;95440.72;5054107;28;20293;-82
2022/05/30 00:04:04;;;;;;;3.00;2.40;;;;;;;10.91;100.00;95450.38;5050614;28;20252;-83
2022/05/30 00:06:31;;;;;;;2.40;2.20;;;;;;;10.86;100.00;95442.22;5050458;28;20271;-82
2022/05/30 00:08:58;;;;;;;3.97;2.10;;;;;;;10.80;100.00;95443.25;5048644;28;20205;-81
2022/05/30 00:11:27;;;;;;;3.47;2.63;;;;;;;10.83;100.00;95453.53;5051706;28;20199;-82
2022/05/30 00:13:55;;;;;;;3.50;2.40;;;;;;;10.82;100.00;95444.63;5053780;28;20194;-81
2022/05/30 00:16:23;;;;;;;4.63;2.37;;;;;;;10.87;100.00;95441.16;5065322;28;20386;-81
2022/05/30 00:18:51;;;;;;;3.33;2.10;;;;;;;10.90;100.00;95454.16;5065721;28;20225;-81
2022/05/30 00:21:21;;;;;;;3.70;2.03;;;;;;;10.88;100.00;95446.31;5065074;28;20193;-82
2022/05/30 00:23:48;;;;;;;4.83;2.20;;;;;;;10.83;100.00;95448.94;5046966;28;20303;-82
2022/05/30 00:26:16;;;;;;;4.60;2.33;;;;;;;10.70;100.00;95443.97;5049779;28;20197;-81
2022/05/30 00:28:44;;;;;;;3.40;2.30;;;;;;;10.63;100.00;95445.22;5048034;28;20217;-83
2022/05/30 00:31:13;;;;;;;3.03;2.50;;;;;;;10.56;100.00;95445.41;5048945;28;20209;-81
2022/05/30 00:33:42;;;;;;;2.83;2.20;;;;;;;10.51;100.00;95451.56;5068092;28;20205;-82
2022/05/30 00:36:09;;;;;;;4.67;2.50;;;;;;;10.43;100.00;95441.22;5046981;28;20284;-82
2022/05/30 00:38:39;;;;;;;5.50;2.60;;;;;;;10.52;100.00;95441.59;5049051;28;20205;-82
2022/05/30 00:41:07;;;;;;;3.47;2.53;;;;;;;10.53;100.00;95432.41;5065150;28;20286;-81
2022/05/30 00:43:41;;;;;;;4.63;2.20;;;;;;;10.58;100.00;95446.78;5061954;28;20247;-82
2022/05/30 00:46:12;;;;;;;2.63;2.20;;;;;;;10.63;100.00;95433.34;5064965;28;20232;-82
2022/05/30 00:48:43;;;;;;;2.53;2.33;;;;;;;10.59;100.00;95437.63;5058664;28;20201;-81
2022/05/30 00:51:19;;;;;;;2.53;2.33;;;;;;;10.59;100.00;95437.63;5071742;28;20209;-81
2022/05/30 00:53:49;;;;;;;2.60;2.30;;;;;;;10.66;100.00;95439.31;5054576;28;20213;-81
2022/05/30 00:56:17;;;;;;;2.27;2.07;;;;;;;10.67;100.00;95443.63;5057180;28;20220;-81
2022/05/30 00:58:51;;;;;;;4.17;2.93;;;;;;;10.65;100.00;95441.19;5062479;28;20212;-81
2022/05/30 01:01:21;;;;;;;2.70;2.30;;;;;;;10.67;100.00;95443.63;5065718;28;20209;-81
2022/05/30 01:06:36;;;;;;;4.07;2.40;;;;;;;10.58;100.00;95427.88;5064734;28;20224;-83
2022/05/30 01:09:09;;;;;;;3.10;2.40;;;;;;;10.49;100.00;95415.09;5064178;28;20228;-81
2022/05/30 01:11:52;;;;;;;2.90;2.57;;;;;;;10.45;100.00;95420.19;5058402;28;20206;-81
2022/05/30 01:14:20;;;;;;;3.53;2.37;;;;;;;10.41;100.00;95412.81;5066475;28;20220;-81
2022/05/30 01:16:49;;;;;;;4.50;2.17;;;;;;;10.50;100.00;95412.13;5064321;28;20221;-82
2022/05/30 01:19:28;;;;;;;2.27;2.07;;;;;;;10.48;100.00;95408.06;5065167;28;20205;-81
2022/05/30 01:22:14;;;;;;;2.30;2.10;;;;;;;10.59;100.00;95415.22;5064509;28;20243;-81
2022/05/30 01:24:52;;;;;;;4.73;2.30;;;;;;;10.64;100.00;95401.75;5060252;28;20221;-83
2022/05/30 01:27:45;;;;;;;3.27;2.20;;;;;;;10.66;100.00;95398.81;5068700;28;20216;-81
2022/05/30 01:30:17;;;;;;;3.00;2.30;;;;;;;10.65;100.00;95395.28;5065110;28;20209;-81
2022/05/30 01:32:44;;;;;;;2.10;1.90;;;;;;;10.66;100.00;95398.81;5076852;28;20230;-82
2022/05/30 01:35:12;;;;;;;4.10;2.10;;;;;;;10.63;100.00;95397.44;5066652;28;20212;-81
2022/05/30 01:37:43;;;;;;;5.37;2.47;;;;;;;10.50;100.00;95393.25;5063957;28;20205;-82
2022/05/30 01:40:12;;;;;;;2.57;2.37;;;;;;;10.58;100.00;95395.50;5072339;28;20241;-81
2022/05/30 01:42:39;;;;;;;5.00;2.27;;;;;;;10.61;100.00;95389.59;5062774;28;20202;-81
2022/05/30 01:45:07;;;;;;;2.77;2.10;;;;;;;10.67;100.00;95386.94;5065299;28;20312;-80
2022/05/30 01:47:37;;;;;;;2.20;2.00;;;;;;;10.71;100.00;95391.59;5063865;28;20206;-81
2022/05/30 01:50:05;;;;;;;2.30;2.10;;;;;;;10.78;100.00;95383.28;5060117;28;20201;-82
2022/05/30 01:52:36;;;;;;;4.57;2.27;;;;;;;10.75;100.00;95383.78;5066316;28;20209;-81
2022/05/30 01:55:04;;;;;;;3.20;2.37;;;;;;;10.71;100.00;95388.06;5064564;28;20201;-81
2022/05/30 01:57:51;;;;;;;5.07;2.50;;;;;;;10.61;100.00;95386.91;5056795;28;20201;-82
2022/05/30 02:00:51;;;;;;;4.07;2.23;;;;;;;10.65;100.00;95391.78;5029027;28;20308;-81
2022/05/30 02:03:20;;;;;;;3.03;2.17;;;;;;;10.63;100.00;95380.44;5065730;28;20227;-81
2022/05/30 02:05:47;;;;;;;5.60;2.70;;;;;;;10.63;100.00;95378.56;5063258;28;20229;-81
2022/05/30 02:08:18;;;;;;;3.17;2.20;;;;;;;10.71;100.00;95377.28;5063200;28;20550;-81
2022/05/30 02:10:46;;;;;;;2.90;2.30;;;;;;;10.75;100.00;95383.78;5065283;28;20206;-82
2022/05/30 02:13:13;;;;;;;2.67;2.47;;;;;;;10.82;100.00;95385.22;5063146;28;20244;-82
2022/05/30 02:18:49;;;;;;;3.20;2.90;;;;;;;10.69;100.00;95382.13;5058852;28;20297;-81
2022/05/30 02:21:17;;;;;;;3.30;2.40;;;;;;;10.63;100.00;95377.75;5062477;28;20252;-81
2022/05/30 02:23:44;;;;;;;3.70;2.53;;;;;;;10.66;100.00;95374.50;5061275;28;20301;-81
2022/05/30 02:26:11;;;;;;;2.83;2.50;;;;;;;10.65;100.00;95370.19;5066061;28;20288;-81
2022/05/30 02:28:38;;;;;;;2.97;2.67;;;;;;;10.69;100.00;95388.31;5070101;28;20202;-82
2022/05/30 02:31:06;;;;;;;3.23;2.63;;;;;;;10.69;100.00;95387.50;5069214;28;20200;-81
2022/05/30 02:36:44;;;;;;;3.97;2.40;;;;;;;10.55;100.00;95376.28;5061811;28;20301;-81
2022/05/30 02:39:15;;;;;;;3.80;2.60;;;;;;;10.56;100.00;95383.31;5087287;28;20220;-81
2022/05/30 02:42:00;;;;;;;2.60;2.30;;;;;;;10.60;100.00;95390.66;5067112;28;20216;-80
2022/05/30 02:44:30;;;;;;;3.33;2.43;;;;;;;10.63;100.00;95393.94;5049455;28;20253;-82
2022/05/30 02:46:58;;;;;;;4.40;2.40;;;;;;;10.69;100.00;95395.59;5047203;28;20262;-82
2022/05/30 02:49:27;;;;;;;3.30;2.37;;;;;;;10.70;100.00;95389.16;5067709;28;20288;-81
2022/05/30 02:51:57;;;;;;;2.47;2.27;;;;;;;10.74;100.00;95393.78;5048709;28;20209;-82
2022/05/30 02:54:25;;;;;;;4.80;2.53;;;;;;;10.62;100.00;95393.13;5043593;28;20217;-81
2022/05/30 02:57:15;;;;;;;3.00;2.70;;;;;;;10.47;100.00;95401.84;5054117;28;20217;-80
2022/05/30 02:59:43;;;;;;;2.80;2.60;;;;;;;10.41;100.00;95396.63;5048909;28;20219;-81
2022/05/30 03:02:10;;;;;;;3.37;3.00;;;;;;;10.46;100.00;95402.13;5050579;28;20262;-82
2022/05/30 03:04:38;;;;;;;3.73;2.50;;;;;;;10.48;100.00;95398.06;5049175;28;20226;-81
2022/05/30 03:07:08;;;;;;;3.37;2.40;;;;;;;10.51;100.00;95397.56;5053449;28;20230;-81
2022/05/30 03:09:35;;;;;;;3.37;2.40;;;;;;;10.54;100.00;95402.47;5044567;28;20206;-81
2022/05/30 03:12:23;;;;;;;3.40;2.10;;;;;;;10.57;100.00;95403.84;5066206;28;20255;-81
2022/05/30 03:14:51;;;;;;;2.93;2.37;;;;;;;10.53;100.00;95387.34;5066611;28;20205;-81
2022/05/30 03:17:18;;;;;;;2.23;2.03;;;;;;;10.55;100.00;95393.28;5052449;28;20221;-82
2022/05/30 03:19:52;;;;;;;2.37;1.90;;;;;;;10.58;100.00;95392.78;5045079;28;20239;-81
2022/05/30 03:22:22;;;;;;;2.50;2.20;;;;;;;10.50;100.00;95401.34;5048310;28;20198;-81
2022/05/30 03:25:12;;;;;;;2.10;1.90;;;;;;;10.51;100.00;95407.56;5037450;28;20279;-81
2022/05/30 03:27:40;;;;;;;2.90;2.57;;;;;;;10.47;100.00;95406.41;5046125;28;20201;-81
2022/05/30 03:30:08;;;;;;;3.47;2.30;;;;;;;10.41;100.00;95418.22;5066378;28;20233;-81
2022/05/30 03:32:35;;;;;;;3.20;2.30;;;;;;;10.37;100.00;95411.72;5050995;28;20202;-82
2022/05/30 03:35:04;;;;;;;3.40;2.20;;;;;;;10.28;100.00;95408.66;5053848;28;20205;-81
2022/05/30 03:37:36;;;;;;;2.80;2.60;;;;;;;10.16;100.00;95413.31;5053151;28;20209;-81
2022/05/30 03:40:23;;;;;;;3.10;2.80;;;;;;;10.15;100.00;95419.75;5041179;28;20233;-81
2022/05/30 03:43:11;;;;;;;2.87;2.50;;;;;;;10.20;100.00;95414.47;5044026;28;20220;-81
2022/05/30 03:45:40;;;;;;;3.03;2.67;;;;;;;10.22;100.00;95423.13;5030174;28;20222;-81
2022/05/30 03:48:10;;;;;;;2.90;2.60;;;;;;;10.16;100.00;95416.00;5028479;28;20206;-81
2022/05/30 03:50:39;;;;;;;5.87;2.83;;;;;;;10.13;100.00;95417.31;5028865;28;20198;-82
2022/05/30 03:53:08;;;;;;;6.83;3.10;;;;;;;10.20;100.00;95423.38;5027799;28;20256;-81
2022/05/30 03:55:43;;;;;;;3.27;2.67;;;;;;;10.24;100.00;95423.69;5031035;28;20308;-81
2022/05/30 03:58:12;;;;;;;3.27;2.60;;;;;;;10.26;100.00;95428.84;5034531;28;20211;-81
2022/05/30 04:00:42;;;;;;;4.00;3.10;;;;;;;10.25;100.00;95433.41;5028058;28;20205;-82
2022/05/30 04:03:09;;;;;;;4.73;3.00;;;;;;;10.26;100.00;95429.66;5028254;28;20214;-81
2022/05/30 04:05:37;;;;;;;4.20;2.80;;;;;;;10.36;100.00;95437.88;5020878;28;20245;-81
2022/05/30 04:08:05;;;;;;;4.27;2.93;;;;;;;10.28;100.00;95435.63;5028507;28;20210;-81
2022/05/30 04:10:53;;;;;;;4.10;2.90;;;;;;;10.30;100.00;95433.47;5033332;28;20209;-82
2022/05/30 04:13:20;;;;;;;3.87;2.87;;;;;;;10.26;100.00;95437.75;5047157;28;20214;-81
2022/05/30 04:16:17;;;;;;;3.43;2.77;;;;;;;10.26;100.00;95440.44;5034776;28;20230;-81
2022/05/30 04:18:45;;;;;;;11.50;3.17;;;;;;;10.24;100.00;95435.28;5026476;28;20257;-81
2022/05/30 04:21:13;;;;;;;4.03;2.87;;;;;;;10.31;100.00;95436.97;5031134;28;20255;-81
2022/05/30 04:23:42;;;;;;;2.93;2.67;;;;;;;10.36;100.00;95448.69;5020501;28;20215;-81
2022/05/30 04:26:16;;;;;;;5.53;2.60;;;;;;;10.43;100.00;95445.78;5027532;28;20268;-80
2022/05/30 04:28:47;;;;;;;4.53;2.93;;;;;;;10.35;100.00;95455.13;5029613;28;20206;-81
2022/05/30 04:31:43;;;;;;;4.47;2.83;;;;;;;10.32;100.00;95449.41;5018216;28;20297;-82
2022/05/30 04:34:13;;;;;;;2.90;2.60;;;;;;;10.31;100.00;95445.91;5022624;28;20210;-81
2022/05/30 04:36:40;;;;;;;3.00;2.60;;;;;;;10.31;100.00;95440.50;5017382;28;20206;-81
2022/05/30 04:39:07;;;;;;;3.40;2.57;;;;;;;10.36;100.00;95445.97;5031367;28;20214;-80
2022/05/30 04:41:58;;;;;;;3.10;2.60;;;;;;;10.39;100.00;95441.94;5060550;28;20269;-81
2022/05/30 04:44:26;;;;;;;3.13;2.40;;;;;;;10.43;100.00;95430.41;5061970;28;20262;-80
2022/05/30 04:47:07;;;;;;;3.17;2.57;;;;;;;10.45;100.00;95440.97;5066250;28;20209;-81
2022/05/30 04:49:37;;;;;;;4.10;2.90;;;;;;;10.43;100.00;95440.38;5063682;28;20212;-81
2022/05/30 04:52:05;;;;;;;3.97;2.97;;;;;;;10.37;100.00;95422.50;5043083;28;20206;-79
2022/05/30 04:54:32;;;;;;;3.57;2.60;;;;;;;10.48;100.00;95429.63;5042360;28;20198;-82
2022/05/30 04:57:20;;;;;;;3.97;2.30;;;;;;;10.50;100.00;95422.94;5053727;28;20203;-82
2022/05/30 05:00:09;;;;;;;3.40;2.47;;;;;;;10.65;100.00;95433.09;5066577;28;20213;-80
2022/05/30 05:02:37;;;;;;;4.23;2.27;;;;;;;10.70;100.00;95422.34;5049269;28;20295;-81
2022/05/30 05:05:04;;;;;;;3.43;2.60;;;;;;;10.78;100.00;95424.59;5047832;28;20232;-82
2022/05/30 05:07:40;;;;;;;3.83;2.50;;;;;;;10.92;100.00;95427.72;5047462;28;20206;-80
2022/05/30 05:10:33;;;;;;;3.67;2.60;;;;;;;10.95;100.00;95429.91;5042634;28;20206;-80
2022/05/30 05:13:26;;;;;;;4.73;3.03;;;;;;;10.99;100.00;95431.84;5058380;28;20293;-80
2022/05/30 05:16:12;;;;;;;6.23;3.30;;;;;;;11.00;100.00;95432.66;5064462;28;20236;-79
2022/05/30 05:18:40;;;;;;;4.97;3.03;;;;;;;11.04;100.00;95436.50;5057962;28;20213;-81
2022/05/30 05:21:07;;;;;;;3.33;2.63;;;;;;;11.04;100.00;95432.97;5047363;28;20233;-80
2022/05/30 05:23:35;;;;;;;5.17;2.83;;;;;;;11.09;100.00;95433.81;5045476;28;20209;-80
2022/05/30 05:26:09;;;;;;;3.23;2.80;;;;;;;11.20;100.00;95446.38;5064615;28;20279;-81
2022/05/30 05:28:49;;;;;;;6.93;3.17;;;;;;;11.27;100.00;95455.06;5040725;28;20198;-81
2022/05/30 05:31:21;;;;;;;4.60;3.07;;;;;;;11.29;100.00;95455.66;5042379;28;20212;-81
2022/05/30 05:33:49;;;;;;;4.17;2.83;;;;;;;11.28;100.00;95451.31;5062572;28;20229;-81
2022/05/30 05:36:19;;;;;;;4.60;3.40;;;;;;;11.25;100.00;95451.81;5048943;28;20204;-80
2022/05/30 05:38:47;;;;;;;3.83;2.67;;;;;;;11.31;100.00;95460.78;5041623;28;20313;-80
2022/05/30 05:41:34;;;;;;;3.43;2.80;;;;;;;11.36;100.00;95463.53;5057779;28;20209;-83
2022/05/30 05:44:12;;;;;;;3.47;2.80;;;;;;;11.42;100.00;95472.50;5041862;28;20213;-81
2022/05/30 05:46:40;;;;;;;4.77;2.83;;;;;;;11.45;100.00;95466.59;5055352;28;20228;-81
2022/05/30 05:49:09;;;;;;;3.23;2.80;;;;;;;11.48;100.00;95468.78;5046938;28;20201;-81
2022/05/30 05:51:38;;;;;;;4.93;3.03;;;;;;;11.51;100.00;95465.53;5058400;28;20285;-81
2022/05/30 05:54:09;;;;;;;5.67;3.10;;;;;;;11.53;100.00;95464.22;5037213;28;20207;-81
2022/05/30 05:56:37;;;;;;;3.50;2.60;;;;;;;11.59;100.00;95473.19;5049138;28;20205;-81
2022/05/30 05:59:12;;;;;;;5.80;3.00;;;;;;;11.60;100.00;95469.41;5065512;28;20199;-82
2022/05/30 06:01:39;;;;;;;4.00;3.10;;;;;;;11.62;100.00;95478.09;5066592;28;20202;-81
2022/05/30 06:04:07;;;;;;;3.10;2.77;;;;;;;11.66;100.00;95471.06;5051967;28;20308;-81
2022/05/30 06:06:43;;;;;;;4.73;3.20;;;;;;;11.71;100.00;95460.31;5066720;28;20217;-81
2022/05/30 06:09:11;;;;;;;6.47;3.03;;;;;;;11.78;100.00;95471.75;5052163;28;20219;-81
2022/05/30 06:11:53;;;;;;;3.00;2.70;;;;;;;11.85;100.00;95475.06;5045676;28;20206;-82
2022/05/30 06:14:23;;;;;;;4.60;3.10;;;;;;;11.85;100.00;95485.88;5051818;28;20209;-81
2022/05/30 06:16:52;;;;;;;7.67;3.57;;;;;;;11.86;100.00;95476.69;5050801;28;20241;-81
2022/05/30 06:19:20;;;;;;;4.47;3.20;;;;;;;11.90;100.00;95480.50;5066680;28;20205;-81
2022/05/30 06:21:48;;;;;;;6.67;2.83;;;;;;;11.90;100.00;95472.41;5051104;28;20233;-82
2022/05/30 06:24:16;;;;;;;4.33;3.27;;;;;;;12.01;100.00;95487.59;5044953;28;20297;-81
2022/05/30 06:27:04;;;;;;;6.13;3.40;;;;;;;12.08;100.00;95481.97;5074896;28;20233;-81
2022/05/30 06:29:57;;;;;;;4.80;3.17;;;;;;;12.17;100.00;95487.69;5046568;28;20217;-81
2022/05/30 06:32:26;;;;;;;6.30;2.90;;;;;;;12.17;100.00;95490.41;5064070;28;20198;-80
2022/05/30 06:35:15;;;;;;;4.40;2.87;;;;;;;12.24;100.00;95496.44;5052669;28;20213;-81
2022/05/30 06:37:43;;;;;;;3.77;2.63;;;;;;;12.27;100.00;95491.28;5059185;28;20205;-81
2022/05/30 06:40:13;;;;;;;5.37;3.00;;;;;;;12.27;100.00;95485.06;5066499;28;20320;-81
2022/05/30 06:42:46;;;;;;;3.33;2.80;;;;;;;12.38;100.00;95492.19;5051254;28;20213;-81
2022/05/30 06:45:34;;;;;;;5.63;2.97;;;;;;;12.33;100.00;95490.28;5066364;28;20278;-81
2022/05/30 06:48:19;;;;;;;4.00;3.30;;;;;;;12.33;100.00;95500.28;5075008;28;20343;-82
2022/05/30 06:51:14;;;;;;;4.43;3.07;;;;;;;12.33;100.00;95494.88;5058777;28;20201;-81
2022/05/30 06:53:43;;;;;;;4.03;3.03;;;;;;;12.29;100.00;95493.75;5050656;28;20217;-81
2022/05/30 06:56:15;;;;;;;3.50;2.90;;;;;;;12.42;100.00;95504.09;5057060;28;20202;-81
2022/05/30 06:58:44;;;;;;;6.37;3.10;;;;;;;12.52;100.00;95502.28;5057660;28;20241;-82
2022/05/30 07:01:13;;;;;;;3.33;3.03;;;;;;;12.56;100.00;95507.16;5047817;28;20218;-81
2022/05/30 07:03:41;;;;;;;3.97;2.83;;;;;;;12.63;100.00;95507.75;5064447;28;20209;-82
2022/05/30 07:06:29;;;;;;;3.90;3.20;;;;;;;12.71;100.00;95507.25;5069965;28;20367;-83
2022/05/30 07:09:19;;;;;;;3.57;2.83;;;;;;;12.77;100.00;95504.28;5053016;28;20323;-80
2022/05/30 07:11:54;;;;;;;4.20;2.90;;;;;;;12.79;100.00;95506.72;5043977;28;20213;-81
2022/05/30 07:14:22;;;;;;;3.43;3.13;;;;;;;12.86;100.00;95512.72;5040039;28;20210;-81
2022/05/30 07:16:51;;;;;;;3.33;2.90;;;;;;;12.92;100.00;95508.16;5051288;28;20356;-82
2022/05/30 07:19:18;;;;;;;4.10;3.40;;;;;;;12.96;100.00;95507.34;5064610;28;20237;-81
2022/05/30 07:21:51;;;;;;;4.93;3.40;;;;;;;13.06;100.00;95510.09;5057267;28;20197;-81
2022/05/30 07:24:37;;;;;;;3.30;3.00;;;;;;;13.17;100.00;95516.41;5067029;28;20275;-81
2022/05/30 07:27:32;;;;;;;4.23;3.47;;;;;;;13.23;100.00;95515.31;5062335;28;20252;-81
2022/05/30 07:30:17;;;;;;;4.77;3.17;;;;;;;13.30;98.79;95517.78;5066011;28;20312;-81
2022/05/30 07:33:05;;;;;;;5.93;3.20;;;;;;;13.32;99.16;95516.44;5069242;28;20220;-82
2022/05/30 07:35:51;;;;;;;3.63;3.03;;;;;;;13.30;98.88;95521.31;5067170;28;20205;-81
2022/05/30 07:38:34;;;;;;;4.10;3.10;;;;;;;13.39;99.09;95522.41;5059053;28;20210;-81
2022/05/30 07:41:22;;;;;;;4.33;2.87;;;;;;;13.41;96.40;95522.16;5067845;28;20252;-81
2022/05/30 07:43:53;;;;;;;3.97;2.90;;;;;;;13.45;96.61;95523.22;5066545;28;20225;-82
2022/05/30 07:46:43;;;;;;;4.33;3.30;;;;;;;13.54;96.35;95525.16;5066502;28;20274;-82
2022/05/30 07:49:24;;;;;;;5.60;3.47;;;;;;;13.57;95.14;95527.34;5051867;28;20236;-82
2022/05/30 07:51:58;;;;;;;4.17;3.00;;;;;;;13.60;95.23;95529.53;5068867;28;20254;-81
2022/05/30 07:54:35;;;;;;;3.67;2.73;;;;;;;13.64;95.75;95524.34;5066499;28;20204;-81
2022/05/30 07:57:17;;;;;;;5.03;3.23;;;;;;;13.66;94.74;95526.81;5047285;28;20263;-82
2022/05/30 07:59:44;;;;;;;3.57;3.00;;;;;;;13.57;94.26;95524.63;5050685;28;20233;-82
2022/05/30 08:02:11;;;;;;;5.63;3.53;;;;;;;13.66;94.72;95529.50;5058451;28;20205;-82
2022/05/30 08:04:42;;;;;;;4.07;3.67;;;;;;;13.64;94.21;95537.91;5056356;28;20206;-82
2022/05/30 08:07:39;;;;;;;4.07;3.20;;;;;;;13.79;95.52;95537.13;4960319;28;20458;-82
2022/05/30 08:10:25;;;;;;;3.60;2.87;;;;;;;13.84;92.63;95529.81;5064356;28;20283;-81
2022/05/30 08:12:52;;;;;;;5.97;2.83;;;;;;;13.89;91.03;95526.28;5059097;28;20258;-82
2022/05/30 08:15:36;;;;;;;2.93;2.73;;;;;;;13.95;91.80;95542.28;5048066;28;20332;-82
2022/05/30 08:18:15;;;;;;;3.87;3.20;;;;;;;14.02;91.91;95539.31;5057453;28;20263;-82
2022/05/30 08:20:43;;;;;;;7.50;3.17;;;;;;;14.07;91.19;95538.50;5057802;28;20216;-82
2022/05/30 08:23:11;;;;;;;5.33;3.10;;;;;;;14.12;90.16;95541.22;5051547;28;20217;-82
2022/05/30 08:25:39;;;;;;;5.97;3.10;;;;;;;14.18;89.68;95538.22;5057292;28;20286;-88
2022/05/30 08:28:06;;;;;;;5.00;3.37;;;;;;;14.36;87.65;95534.16;5034470;28;20228;-88
2022/05/30 08:30:35;;;;;;;3.57;2.90;;;;;;;14.64;87.28;95535.47;5052077;28;20206;-85
2022/05/30 08:33:22;;;;;;;5.60;3.13;;;;;;;14.82;87.16;95543.03;5061214;28;20283;-87
2022/05/30 08:36:05;;;;;;;3.47;2.47;;;;;;;14.77;86.29;95537.63;5060298;28;20209;-86
2022/05/30 08:38:34;;;;;;;4.83;2.87;;;;;;;14.75;88.05;95531.63;5060042;28;20207;-85
2022/05/30 08:43:50;;;;;;;6.57;3.20;;;;;;;14.91;85.07;95552.25;5068075;28;20212;-87
2022/05/30 08:46:55;;;;;;;4.87;2.80;;;;;;;14.75;85.59;95564.25;5069109;28;20233;-81
2022/05/30 08:49:27;;;;;;;3.30;2.90;;;;;;;14.70;85.64;95562.38;5066994;28;20208;-86
2022/05/30 08:52:15;;;;;;;4.77;3.10;;;;;;;14.71;86.79;95555.03;5065262;28;20205;-87
2022/05/30 08:55:02;;;;;;;5.70;3.00;;;;;;;14.81;86.33;95554.97;5058812;28;20263;-88
2022/05/30 08:57:48;;;;;;;4.63;3.07;;;;;;;14.95;84.17;95566.09;5058430;28;20208;-88
2022/05/30 09:00:23;;;;;;;5.50;2.87;;;;;;;14.96;83.67;95546.81;5064493;28;20209;-82
2022/05/30 09:03:15;;;;;;;4.20;3.10;;;;;;;14.96;83.90;95562.31;5062760;28;20204;-82
2022/05/30 09:05:47;;;;;;;6.03;3.03;;;;;;;14.90;83.62;95558.75;5061034;28;20234;-82
2022/05/30 09:08:23;;;;;;;5.57;3.10;;;;;;;15.07;85.83;95545.66;5062682;28;20248;-86
2022/05/30 09:10:57;;;;;;;4.00;3.00;;;;;;;15.53;82.73;95556.34;5068548;28;20198;-83
2022/05/30 09:13:30;;;;;;;3.40;2.93;;;;;;;15.60;80.77;95558.78;5069889;28;20225;-82
2022/05/30 09:16:32;;;;;;;3.97;2.70;;;;;;;15.58;77.91;95553.59;5079809;28;20290;-82
2022/05/30 09:19:08;;;;;;;2.57;2.23;;;;;;;15.52;78.27;95551.97;5065887;28;20205;-82
2022/05/30 09:21:37;;;;;;;5.40;2.80;;;;;;;15.52;78.16;95565.59;5065807;28;20419;-83
2022/05/30 09:24:06;;;;;;;3.80;2.87;;;;;;;15.34;80.29;95561.59;5065957;28;20213;-82
2022/05/30 09:26:38;;;;;;;2.80;2.47;;;;;;;15.38;79.51;95570.84;5066045;28;20237;-82
2022/05/30 09:29:19;;;;;;;4.10;2.80;;;;;;;15.35;78.74;95568.66;5066254;28;20260;-82
2022/05/30 09:32:22;;;;;;;5.83;3.20;;;;;;;15.25;80.06;95567.88;5061492;28;20231;-82
2022/05/30 09:34:53;;;;;;;3.77;3.03;;;;;;;15.25;80.24;95563.25;5056897;28;20225;-86
2022/05/30 09:38:11;;;;;;;3.73;2.80;;;;;;;15.26;77.31;95567.63;5066310;28;20205;-83
2022/05/30 09:41:06;;;;;;;2.47;2.27;;;;;;;15.28;75.57;95561.91;5048346;28;20221;-86
2022/05/30 09:43:58;;;;;;;2.83;2.53;;;;;;;15.31;77.29;95569.50;5069662;28;20274;-86
2022/05/30 09:46:34;;;;;;;3.90;3.00;;;;;;;15.39;76.88;95558.06;5070323;28;20317;-85
2022/05/30 09:49:15;;;;;;;4.83;2.77;;;;;;;15.56;76.30;95563.16;5069941;28;20255;-86
2022/05/30 09:51:45;;;;;;;3.53;2.40;;;;;;;15.63;77.14;95563.66;5060695;28;20201;-86
2022/05/30 09:54:31;;;;;;;3.47;2.70;;;;;;;15.67;76.27;95565.53;5066248;28;20209;-86
2022/05/30 09:57:07;;;;;;;3.47;2.80;;;;;;;15.70;76.21;95559.53;5066466;28;20202;-86
2022/05/30 09:59:57;;;;;;;5.57;3.07;;;;;;;15.68;75.06;95561.72;5063035;28;20209;-85
2022/05/30 10:02:31;;;;;;;3.43;2.77;;;;;;;15.68;73.80;95569.06;5051936;28;20332;-85
2022/05/30 10:05:01;;;;;;;4.33;2.90;;;;;;;15.67;73.06;95565.53;5060240;28;20206;-85
2022/05/30 10:07:30;;;;;;;3.73;3.07;;;;;;;15.77;73.13;95564.66;5077123;28;20231;-86
2022/05/30 10:10:26;;;;;;;3.97;2.30;;;;;;;15.71;73.01;95566.59;5057466;28;20205;-86
2022/05/30 10:13:02;;;;;;;7.13;2.80;;;;;;;15.67;71.75;95565.53;5062104;28;20232;-85
2022/05/30 10:15:57;;;;;;;6.07;2.77;;;;;;;15.72;71.78;95568.25;5042105;28;20225;-86
2022/05/30 10:18:29;;;;;;;3.20;2.80;;;;;;;15.63;72.41;95569.09;5066372;28;20225;-86
2022/05/30 10:21:10;;;;;;;4.77;2.60;;;;;;;15.63;73.53;95572.66;5062062;28;20210;-86
2022/05/30 10:30:57;;;;;;;5.33;2.70;;;;;;;16.22;71.80;95577.16;5058924;28;20240;-86
2022/05/30 10:33:47;;;;;;;5.93;3.03;;;;;;;16.44;71.59;95573.97;5065108;28;20304;-86
2022/05/30 10:36:22;;;;;;;5.30;2.80;;;;;;;16.53;71.05;95573.06;5060646;28;20209;-86
2022/05/30 10:39:03;;;;;;;3.33;3.03;;;;;;;16.68;70.15;95579.47;5060942;28;20228;-86
2022/05/30 10:41:38;;;;;;;3.40;2.50;;;;;;;17.07;70.02;95582.91;5063792;28;20210;-86
2022/05/30 10:44:10;;;;;;;4.33;3.03;;;;;;;17.31;68.29;95570.09;5063509;28;20209;-87
2022/05/30 10:46:47;;;;;;;4.40;2.80;;;;;;;17.57;68.93;95572.50;5062726;28;20198;-87
2022/05/30 10:49:17;;;;;;;3.00;2.60;;;;;;;17.69;66.41;95572.91;5064334;28;20205;-86
2022/05/30 10:51:52;;;;;;;6.10;2.90;;;;;;;17.84;63.92;95564.50;5071070;28;20206;-84
2022/05/30 10:54:25;;;;;;;3.13;2.63;;;;;;;17.89;65.24;95564.41;5066589;28;20309;-85
2022/05/30 10:57:08;;;;;;;4.87;2.60;;;;;;;18.24;65.27;95567.72;5060838;28;20201;-87
2022/05/30 10:59:42;;;;;;;4.53;2.60;;;;;;;18.34;65.02;95562.09;5064282;28;20570;-86
2022/05/30 11:02:23;;;;;;;2.93;2.60;;;;;;;18.52;62.95;95564.00;5058161;28;20272;-85
2022/05/30 11:04:55;;;;;;;3.70;2.33;;;;;;;18.87;61.75;95565.31;5065128;28;20259;-86
2022/05/30 11:07:36;;;;;;;2.90;2.60;;;;;;;19.10;62.05;95571.72;5066675;28;20218;-86
2022/05/30 11:10:22;;;;;;;4.60;2.60;;;;;;;19.04;60.42;95572.94;5055579;28;20210;-85
2022/05/30 11:13:01;;;;;;;5.00;2.80;;;;;;;19.05;60.99;95580.84;5077997;28;20210;-86
2022/05/30 11:15:33;;;;;;;3.38;2.53;;;;;;;19.02;60.57;95573.22;5063797;28;20274;-85
2022/05/30 11:18:30;;;;;;;2.92;2.63;;;;;;;19.05;63.21;95574.56;5062183;28;20219;-86
2022/05/30 11:21:25;;;;;;;3.20;2.40;;;;;;;19.07;61.24;95580.53;5065411;28;20204;-86
2022/05/30 11:23:53;;;;;;;4.10;2.60;;;;;;;18.77;60.08;95585.44;5078418;28;20217;-86
2022/05/30 11:26:40;;;;;;;3.73;2.30;;;;;;;18.56;63.32;95586.88;5055073;28;20213;-86
2022/05/30 11:29:38;;;;;;;3.30;2.70;;;;;;;18.78;62.48;95598.03;5062316;28;20205;-87
2022/05/30 11:32:11;;;;;;;3.23;2.60;;;;;;;18.87;66.57;95581.72;5070423;28;20201;-85
2022/05/30 11:34:58;;;;;;;5.53;2.90;;;;;;;18.82;63.19;95581.81;5064601;28;20225;-86
2022/05/30 11:37:50;;;;;;;5.17;2.63;;;;;;;18.62;66.11;95584.91;5073285;28;20347;-85
2022/05/30 11:40:29;;;;;;;3.33;2.73;;;;;;;18.33;67.21;95596.81;5047600;28;20246;-85
2022/05/30 11:43:16;;;;;;;3.83;2.70;;;;;;;17.86;65.41;95605.19;5024965;28;20236;-86
2022/05/30 11:45:54;;;;;;;3.77;2.77;;;;;;;17.57;69.16;95599.78;5024298;28;20210;-86
2022/05/30 11:48:33;;;;;;;4.07;2.80;;;;;;;17.49;73.80;95611.34;5025341;28;20240;-85
2022/05/30 11:51:14;;;;;;;3.83;2.70;;;;;;;17.20;73.21;95609.50;5053988;28;20304;-85
2022/05/30 11:54:04;;;;;;;4.40;3.20;;;;;;;16.98;75.42;95614.66;5030266;28;20217;-86
2022/05/30 11:56:43;;;;;;;4.33;3.33;;;;;;;16.95;78.03;95624.22;5027596;28;20221;-86
2022/05/30 11:59:56;;;;;;;5.53;3.77;;;;;;;16.84;82.03;95621.88;5015938;28;20214;-86
2022/05/30 12:02:27;;;;;;;3.67;3.37;;;;;;;16.55;82.86;95611.75;5024695;28;20222;-86
2022/05/30 12:05:20;;;;;;;3.20;2.87;;;;;;;16.51;83.33;95635.19;5020357;28;20209;-86
2022/05/30 12:08:07;;;;;;;9.53;3.90;;;;;;;16.48;94.04;95630.34;5042813;28;20237;-86
2022/05/30 12:10:58;;;;;;;4.50;3.70;;;;;;;16.53;96.34;95618.56;5023966;28;20206;-85
2022/05/30 12:13:43;;;;;;;6.47;3.57;;;;;;;16.46;92.26;95643.44;5035319;28;20301;-85
2022/05/30 12:16:23;;;;;;;4.17;3.30;;;;;;;16.34;96.02;95639.41;5047338;28;20230;-85
2022/05/30 12:25:02;;;;;;;4.40;3.20;;;;;;;16.39;100.00;95658.47;5046643;28;20213;-84
2022/05/30 12:27:38;;;;;;;3.10;2.67;;;;;;;16.26;100.00;95659.91;5033677;28;20237;-84
2022/05/30 12:30:13;;;;;;;4.47;2.67;;;;;;;16.08;98.30;95644.22;5040454;28;20216;-85
2022/05/30 12:32:44;;;;;;;4.63;2.40;;;;;;;16.12;94.26;95650.75;5023931;28;20217;-84
2022/05/30 12:35:28;;;;;;;5.73;2.40;;;;;;;16.14;97.44;95654.00;5022249;28;20211;-84